Danica Hav — C6ML9 — position and weather

sailwx.info

Track history (hours):
 
Tides and Currents Weather Stations Pressure Air Temp Water Temp Dewpoint Dewpoint Depression Visibility Wind Speed Wind Dir Waves Ship Positions

Danica Hav

Last reported at 2018-Jun-19 06:30 UTC. Time now 2018-Jun-22 20:17 UTC.
Position N 54°53' E 019°09'.

Length 82 m; draft 2.6 m.

Type: Cargo ship. MMSI: 308924000.

Date/timePositionNaut miles runAvg speedWind from/ knotsBaromVisibWave heightAir tempDewpointWater temp
2018-Jun-19 06:30N 54°53' E 019°09'5 9.5
2018-Jun-19 06:00N 54°49' E 019°06'5 9.5
2018-Jun-19 05:29N 54°45' E 019°02'5 9.4
2018-Jun-19 05:00N 54°41' E 018°58'510.0
2018-Jun-19 04:31N 54°36' E 018°55'510.1
2018-Jun-19 04:00N 54°32' E 018°49'510.0
2018-Jun-19 03:30N 54°28' E 018°44'4 8.5
2018-Jun-19 03:01N 54°25' E 018°39'2 2.8
2018-Jun-19 02:29N 54°24' E 018°40'0 0.0
2018-Jun-19 01:59N 54°24' E 018°40'0 0.0
2018-Jun-19 01:29N 54°24' E 018°40'0 0.0
2018-Jun-19 00:59N 54°24' E 018°40'0 0.0
2018-Jun-19 00:29N 54°24' E 018°40'0 0.0
2018-Jun-18 23:59N 54°24' E 018°40'0 0.0
2018-Jun-18 23:26N 54°24' E 018°40'0 0.0
2018-Jun-18 22:59N 54°24' E 018°40'0 0.0
2018-Jun-18 22:23N 54°24' E 018°40'0 0.0
2018-Jun-18 21:59N 54°24' E 018°40'0 0.0
2018-Jun-18 21:29N 54°24' E 018°40'0 0.0
2018-Jun-18 20:59N 54°24' E 018°40'0 0.0
2018-Jun-18 20:26N 54°24' E 018°40'0 0.0
2018-Jun-18 19:59N 54°24' E 018°40'0 0.0
2018-Jun-18 19:29N 54°24' E 018°40'0 0.0
2018-Jun-18 18:59N 54°24' E 018°40'0 0.0
2018-Jun-18 18:23N 54°24' E 018°40'0 0.0
2018-Jun-18 17:56N 54°24' E 018°40'0 0.0
2018-Jun-18 17:29N 54°24' E 018°40'0 0.0
2018-Jun-18 16:59N 54°24' E 018°40'0 0.0
2018-Jun-18 16:29N 54°24' E 018°40'0 0.0
2018-Jun-18 15:58N 54°24' E 018°40'0 0.0
2018-Jun-18 15:29N 54°24' E 018°40'0 0.0
2018-Jun-18 14:52N 54°24' E 018°40'0 0.0
2018-Jun-18 14:29N 54°24' E 018°40'0 0.0
2018-Jun-18 13:59N 54°24' E 018°40'0 0.0
2018-Jun-18 13:28N 54°24' E 018°40'0 0.0
2018-Jun-18 12:49N 54°24' E 018°40'0 0.0
2018-Jun-18 12:28N 54°24' E 018°40'0 0.0
2018-Jun-18 11:59N 54°24' E 018°40'0 0.0
2018-Jun-18 11:22N 54°24' E 018°40'0 0.0
2018-Jun-18 10:58N 54°24' E 018°40'0 0.0
2018-Jun-18 10:28N 54°24' E 018°40'0 0.0
2018-Jun-18 09:58N 54°24' E 018°40'0 0.0
2018-Jun-18 09:16N 54°24' E 018°40'0 0.0
2018-Jun-18 08:49N 54°24' E 018°40'0 0.0
2018-Jun-18 08:25N 54°24' E 018°40'0 0.0
2018-Jun-18 07:58N 54°24' E 018°40'0 0.0
2018-Jun-18 07:28N 54°24' E 018°40'0 0.0
2018-Jun-18 06:49N 54°24' E 018°40'0 0.0
2018-Jun-18 06:28N 54°24' E 018°40'0 0.0
2018-Jun-18 05:55N 54°24' E 018°40'0 0.0
2018-Jun-18 04:49N 54°24' E 018°40'0 0.0
2018-Jun-18 04:30N 54°24' E 018°40'2 4.7
2018-Jun-18 04:01N 54°26' E 018°39'0 0.7
2018-Jun-18 03:28N 54°26' E 018°39'0 0.0
2018-Jun-18 02:58N 54°26' E 018°39'0 0.0
2018-Jun-18 02:28N 54°26' E 018°39'0 0.0
2018-Jun-18 01:58N 54°26' E 018°39'0 0.0
2018-Jun-18 01:28N 54°26' E 018°39'0 0.0
2018-Jun-18 00:58N 54°26' E 018°39'0 0.0
2018-Jun-18 00:28N 54°26' E 018°39'0 0.0
2018-Jun-17 23:55N 54°26' E 018°39'0 0.0
2018-Jun-17 23:28N 54°26' E 018°39'0 0.0
2018-Jun-17 22:58N 54°26' E 018°39'0 0.0
2018-Jun-17 22:28N 54°26' E 018°39'0 0.0
2018-Jun-17 21:58N 54°26' E 018°39'0 0.0
2018-Jun-17 21:28N 54°26' E 018°39'0 0.0
2018-Jun-17 20:58N 54°26' E 018°39'0 0.0
2018-Jun-17 20:28N 54°26' E 018°39'0 0.0
2018-Jun-17 19:58N 54°26' E 018°39'0 0.0
2018-Jun-17 19:28N 54°26' E 018°39'0 0.0
2018-Jun-17 18:58N 54°26' E 018°39'0 0.0
2018-Jun-17 18:28N 54°26' E 018°39'0 0.0
2018-Jun-17 17:58N 54°26' E 018°39'0 0.1
2018-Jun-17 17:28N 54°26' E 018°39'0 0.1
2018-Jun-17 16:58N 54°26' E 018°39'0 0.0
2018-Jun-17 16:28N 54°26' E 018°39'0 0.0
2018-Jun-17 15:58N 54°26' E 018°39'0 0.0
2018-Jun-17 15:28N 54°26' E 018°39'0 0.0
2018-Jun-17 14:58N 54°26' E 018°39'0 0.0
2018-Jun-17 14:28N 54°26' E 018°39'0 0.0
2018-Jun-17 13:58N 54°26' E 018°39'0 0.0
2018-Jun-17 13:28N 54°26' E 018°39'0 0.0
2018-Jun-17 12:58N 54°26' E 018°39'0 0.0
2018-Jun-17 12:31N 54°26' E 018°39'0 0.0
2018-Jun-17 12:01N 54°26' E 018°39'0 0.0
2018-Jun-17 11:31N 54°26' E 018°39'0 0.0
2018-Jun-17 11:00N 54°26' E 018°39'0 0.0
2018-Jun-17 10:30N 54°26' E 018°39'0 0.0
2018-Jun-17 10:00N 54°26' E 018°39'0 0.0
2018-Jun-17 09:30N 54°26' E 018°39'0 0.0
2018-Jun-17 09:00N 54°26' E 018°39'0 0.0
2018-Jun-17 08:30N 54°26' E 018°39'0 0.0
2018-Jun-17 08:00N 54°26' E 018°39'0 0.0
2018-Jun-17 07:30N 54°26' E 018°39'0 0.0
2018-Jun-17 07:00N 54°26' E 018°39'0 0.0
2018-Jun-17 06:30N 54°26' E 018°39'0 0.0
2018-Jun-17 06:00N 54°26' E 018°39'0 0.0
2018-Jun-17 05:30N 54°26' E 018°39'0 0.0
2018-Jun-17 05:00N 54°26' E 018°39'0 0.0
2018-Jun-17 04:30N 54°26' E 018°39'0 0.0
2018-Jun-17 04:00N 54°26' E 018°39'0 0.0
2018-Jun-17 03:30N 54°26' E 018°39'0 0.0
2018-Jun-17 03:00N 54°26' E 018°39'0 0.0
2018-Jun-17 02:30N 54°26' E 018°39'0 0.0
2018-Jun-17 02:00N 54°26' E 018°39'0 0.0
2018-Jun-17 01:30N 54°26' E 018°39'0 0.0
2018-Jun-17 00:57N 54°26' E 018°39'0 0.0
2018-Jun-17 00:30N 54°26' E 018°39'0 0.0
2018-Jun-17 00:00N 54°26' E 018°39'0 0.0
2018-Jun-16 23:30N 54°26' E 018°39'0 0.0
2018-Jun-16 23:00N 54°26' E 018°39'0 0.0
2018-Jun-16 22:30N 54°26' E 018°39'0 0.0
2018-Jun-16 22:00N 54°26' E 018°39'0 0.0
2018-Jun-16 21:30N 54°26' E 018°39'0 0.0
2018-Jun-16 21:00N 54°26' E 018°39'0 0.0
2018-Jun-16 20:30N 54°26' E 018°39'0 0.0
2018-Jun-16 20:00N 54°26' E 018°39'0 0.0
2018-Jun-16 19:30N 54°26' E 018°39'0 0.0
2018-Jun-16 18:57N 54°26' E 018°39'0 0.0
2018-Jun-16 18:30N 54°26' E 018°39'0 0.0
2018-Jun-16 18:00N 54°26' E 018°39'0 0.0
2018-Jun-16 17:30N 54°26' E 018°39'0 0.0
2018-Jun-16 17:00N 54°26' E 018°39'0 0.0
2018-Jun-16 16:30N 54°26' E 018°39'0 0.0
2018-Jun-16 16:00N 54°26' E 018°39'0 0.0
2018-Jun-16 15:30N 54°26' E 018°39'0 0.0
2018-Jun-16 15:00N 54°26' E 018°39'0 0.0
2018-Jun-16 14:30N 54°26' E 018°39'0 0.0
2018-Jun-16 14:00N 54°26' E 018°39'0 0.0
2018-Jun-16 13:30N 54°26' E 018°39'0 0.0
2018-Jun-16 13:00N 54°26' E 018°39'0 0.0
2018-Jun-16 12:30N 54°26' E 018°39'0 0.0
2018-Jun-16 12:00N 54°26' E 018°39'0 0.0
2018-Jun-16 11:30N 54°26' E 018°39'0 0.0
2018-Jun-16 11:00N 54°26' E 018°39'0 0.0
2018-Jun-16 10:30N 54°26' E 018°39'0 0.0
2018-Jun-16 10:00N 54°26' E 018°39'0 0.0
2018-Jun-16 09:30N 54°26' E 018°39'0 0.0
2018-Jun-16 09:00N 54°26' E 018°39'0 0.0
2018-Jun-16 08:30N 54°26' E 018°39'0 0.0
2018-Jun-16 08:00N 54°26' E 018°39'0 0.1
2018-Jun-16 07:30N 54°26' E 018°39'0 0.0
2018-Jun-16 07:00N 54°26' E 018°39'0 0.0
2018-Jun-16 06:30N 54°26' E 018°39'0 0.0
2018-Jun-16 06:00N 54°26' E 018°39'0 0.0
2018-Jun-16 05:30N 54°26' E 018°39'0 0.0
2018-Jun-16 05:00N 54°26' E 018°39'0 0.1
2018-Jun-16 04:30N 54°26' E 018°39'1 2.6
2018-Jun-16 04:00N 54°27' E 018°40'4 8.4
2018-Jun-16 03:30N 54°30' E 018°45'4 8.3
2018-Jun-16 03:00N 54°34' E 018°50'4 8.0
2018-Jun-16 02:30N 54°37' E 018°54'4 8.0
2018-Jun-16 02:00N 54°41' E 018°56'4 8.5
2018-Jun-16 01:30N 54°45' E 018°55'4 8.7
2018-Jun-16 01:00N 54°49' E 018°53'4 8.7
2018-Jun-16 00:30N 54°53' E 018°51'4 8.7
2018-Jun-16 00:00N 54°57' E 018°50'4 8.7
2018-Jun-15 23:30N 55°02' E 018°47'226 8.3
2018-Jun-14 20:21N 58°46' E 017°48'3 7.9
2018-Jun-14 20:00N 58°48' E 017°46'4 8.4
2018-Jun-14 19:30N 58°52' E 017°43'4 8.7
2018-Jun-14 19:00N 58°56' E 017°43'  
2018-Jun-11 15:02N 59°02' E 017°42'0 9.5
2018-Jun-11 15:00N 59°02' E 017°42'5 9.6
2018-Jun-11 14:28N 58°57' E 017°43'5 9.7
2018-Jun-11 13:59N 58°52' E 017°43'184 8.3
2018-Jun-10 15:49N 55°55' E 016°16'710.1
2018-Jun-10 15:06N 55°51' E 016°05'110.1
2018-Jun-10 15:00N 55°51' E 016°03'810.3
2018-Jun-10 14:11N 55°47' E 015°50'1010.2
2018-Jun-10 13:13N 55°42' E 015°35'210.4
2018-Jun-10 13:00N 55°41' E 015°32'610.1
2018-Jun-10 12:24N 55°38' E 015°22'4 9.9
2018-Jun-10 12:00N 55°36' E 015°16'610.2
2018-Jun-10 11:24N 55°33' E 015°06'410.3
2018-Jun-10 11:00N 55°31' E 014°60'510.2
2018-Jun-10 10:30N 55°29' E 014°52'510.1
2018-Jun-10 10:00N 55°26' E 014°44'510.1
2018-Jun-10 09:30N 55°23' E 014°37'510.0
2018-Jun-10 08:58N 55°19' E 014°31'510.2
2018-Jun-10 08:29N 55°15' E 014°26'510.3
2018-Jun-10 08:00N 55°12' E 014°20'510.0
2018-Jun-10 07:30N 55°10' E 014°12'5 9.8
2018-Jun-10 06:57N 55°11' E 014°02'6 9.3
2018-Jun-10 06:18N 55°11' E 013°51'3 9.1
2018-Jun-10 06:00N 55°11' E 013°47'5 9.1
2018-Jun-10 05:30N 55°12' E 013°39'4 9.0
2018-Jun-10 05:00N 55°12' E 013°31'5 9.1
2018-Jun-10 04:30N 55°13' E 013°23'5 9.1
2018-Jun-10 04:00N 55°13' E 013°15'5 9.1
2018-Jun-10 03:30N 55°14' E 013°07'5 9.2
2018-Jun-10 02:59N 55°14' E 012°59'4 9.1
2018-Jun-10 02:30N 55°15' E 012°51'5 9.0
2018-Jun-10 02:00N 55°17' E 012°44'4 8.4
2018-Jun-10 01:31N 55°19' E 012°38'5 9.4
2018-Jun-10 01:00N 55°24' E 012°39'5 9.5
2018-Jun-10 00:30N 55°28' E 012°41'5 9.4
2018-Jun-10 00:01N 55°33' E 012°42'5 9.1
2018-Jun-09 23:30N 55°37' E 012°42'4 8.9
2018-Jun-09 23:00N 55°42' E 012°41'4 9.1
2018-Jun-09 22:31N 55°46' E 012°41'5 9.4
2018-Jun-09 22:01N 55°51' E 012°39'5 9.0
2018-Jun-09 21:30N 55°55' E 012°38'4 9.0
2018-Jun-09 21:01N 55°60' E 012°38'4 7.7
2018-Jun-09 20:29N 56°04' E 012°37'60 9.0
2018-Jun-09 13:49N 56°34' E 011°03'3 8.8
2018-Jun-09 13:30N 56°36' E 010°59'7 8.3
2018-Jun-09 12:40N 56°41' E 010°51'1 8.6
2018-Jun-09 12:30N 56°42' E 010°49'5 9.1
2018-Jun-09 12:00N 56°45' E 010°43'5 9.3
2018-Jun-09 11:30N 56°49' E 010°38'7 9.4
2018-Jun-09 10:46N 56°54' E 010°29'3 9.4
2018-Jun-09 10:25N 56°56' E 010°25'510.1
2018-Jun-09 09:57N 56°59' E 010°19'5 9.9
2018-Jun-09 09:30N 57°00' E 010°10'5 9.1
2018-Jun-09 09:00N 57°03' E 010°04'0 0.2
2018-Jun-09 08:23N 57°03' E 010°04'0 0.0
2018-Jun-09 07:53N 57°03' E 010°04'0 0.0
2018-Jun-09 07:29N 57°03' E 010°04'0 0.0
2018-Jun-09 06:53N 57°03' E 010°04'  
Track history (hours):
 
Tides and Currents Weather Stations Pressure Air Temp Water Temp Dewpoint Dewpoint Depression Visibility Wind Speed Wind Dir Waves Ship Positions

Danica Hav

Last reported at 2018-Jun-19 06:30 UTC. Time now 2018-Jun-22 20:17 UTC.
Position N 54°53' E 019°09'.

Length 82 m; draft 2.6 m.

Type: Cargo ship. MMSI: 308924000.

Date/timePositionNaut miles runAvg speedWind from/ knotsBaromVisibWave heightAir tempDewpointWater temp
2018-Jun-19 06:30N 54°53' E 019°09'5 9.5
2018-Jun-19 06:00N 54°49' E 019°06'5 9.5
2018-Jun-19 05:29N 54°45' E 019°02'5 9.4
2018-Jun-19 05:00N 54°41' E 018°58'510.0
2018-Jun-19 04:31N 54°36' E 018°55'510.1
2018-Jun-19 04:00N 54°32' E 018°49'510.0
2018-Jun-19 03:30N 54°28' E 018°44'4 8.5
2018-Jun-19 03:01N 54°25' E 018°39'2 2.8
2018-Jun-19 02:29N 54°24' E 018°40'0 0.0
2018-Jun-19 01:59N 54°24' E 018°40'0 0.0
2018-Jun-19 01:29N 54°24' E 018°40'0 0.0
2018-Jun-19 00:59N 54°24' E 018°40'0 0.0
2018-Jun-19 00:29N 54°24' E 018°40'0 0.0
2018-Jun-18 23:59N 54°24' E 018°40'0 0.0
2018-Jun-18 23:26N 54°24' E 018°40'0 0.0
2018-Jun-18 22:59N 54°24' E 018°40'0 0.0
2018-Jun-18 22:23N 54°24' E 018°40'0 0.0
2018-Jun-18 21:59N 54°24' E 018°40'0 0.0
2018-Jun-18 21:29N 54°24' E 018°40'0 0.0
2018-Jun-18 20:59N 54°24' E 018°40'0 0.0
2018-Jun-18 20:26N 54°24' E 018°40'0 0.0
2018-Jun-18 19:59N 54°24' E 018°40'0 0.0
2018-Jun-18 19:29N 54°24' E 018°40'0 0.0
2018-Jun-18 18:59N 54°24' E 018°40'0 0.0
2018-Jun-18 18:23N 54°24' E 018°40'0 0.0
2018-Jun-18 17:56N 54°24' E 018°40'0 0.0
2018-Jun-18 17:29N 54°24' E 018°40'0 0.0
2018-Jun-18 16:59N 54°24' E 018°40'0 0.0
2018-Jun-18 16:29N 54°24' E 018°40'0 0.0
2018-Jun-18 15:58N 54°24' E 018°40'0 0.0
2018-Jun-18 15:29N 54°24' E 018°40'0 0.0
2018-Jun-18 14:52N 54°24' E 018°40'0 0.0
2018-Jun-18 14:29N 54°24' E 018°40'0 0.0
2018-Jun-18 13:59N 54°24' E 018°40'0 0.0
2018-Jun-18 13:28N 54°24' E 018°40'0 0.0
2018-Jun-18 12:49N 54°24' E 018°40'0 0.0
2018-Jun-18 12:28N 54°24' E 018°40'0 0.0
2018-Jun-18 11:59N 54°24' E 018°40'0 0.0
2018-Jun-18 11:22N 54°24' E 018°40'0 0.0
2018-Jun-18 10:58N 54°24' E 018°40'0 0.0
2018-Jun-18 10:28N 54°24' E 018°40'0 0.0
2018-Jun-18 09:58N 54°24' E 018°40'0 0.0
2018-Jun-18 09:16N 54°24' E 018°40'0 0.0
2018-Jun-18 08:49N 54°24' E 018°40'0 0.0
2018-Jun-18 08:25N 54°24' E 018°40'0 0.0
2018-Jun-18 07:58N 54°24' E 018°40'0 0.0
2018-Jun-18 07:28N 54°24' E 018°40'0 0.0
2018-Jun-18 06:49N 54°24' E 018°40'0 0.0
2018-Jun-18 06:28N 54°24' E 018°40'0 0.0
2018-Jun-18 05:55N 54°24' E 018°40'0 0.0
2018-Jun-18 04:49N 54°24' E 018°40'0 0.0
2018-Jun-18 04:30N 54°24' E 018°40'2 4.7
2018-Jun-18 04:01N 54°26' E 018°39'0 0.7
2018-Jun-18 03:28N 54°26' E 018°39'0 0.0
2018-Jun-18 02:58N 54°26' E 018°39'0 0.0
2018-Jun-18 02:28N 54°26' E 018°39'0 0.0
2018-Jun-18 01:58N 54°26' E 018°39'0 0.0
2018-Jun-18 01:28N 54°26' E 018°39'0 0.0
2018-Jun-18 00:58N 54°26' E 018°39'0 0.0
2018-Jun-18 00:28N 54°26' E 018°39'0 0.0
2018-Jun-17 23:55N 54°26' E 018°39'0 0.0
2018-Jun-17 23:28N 54°26' E 018°39'0 0.0
2018-Jun-17 22:58N 54°26' E 018°39'0 0.0
2018-Jun-17 22:28N 54°26' E 018°39'0 0.0
2018-Jun-17 21:58N 54°26' E 018°39'0 0.0
2018-Jun-17 21:28N 54°26' E 018°39'0 0.0
2018-Jun-17 20:58N 54°26' E 018°39'0 0.0
2018-Jun-17 20:28N 54°26' E 018°39'0 0.0
2018-Jun-17 19:58N 54°26' E 018°39'0 0.0
2018-Jun-17 19:28N 54°26' E 018°39'0 0.0
2018-Jun-17 18:58N 54°26' E 018°39'0 0.0
2018-Jun-17 18:28N 54°26' E 018°39'0 0.0
2018-Jun-17 17:58N 54°26' E 018°39'0 0.1
2018-Jun-17 17:28N 54°26' E 018°39'0 0.1
2018-Jun-17 16:58N 54°26' E 018°39'0 0.0
2018-Jun-17 16:28N 54°26' E 018°39'0 0.0
2018-Jun-17 15:58N 54°26' E 018°39'0 0.0
2018-Jun-17 15:28N 54°26' E 018°39'0 0.0
2018-Jun-17 14:58N 54°26' E 018°39'0 0.0
2018-Jun-17 14:28N 54°26' E 018°39'0 0.0
2018-Jun-17 13:58N 54°26' E 018°39'0 0.0
2018-Jun-17 13:28N 54°26' E 018°39'0 0.0
2018-Jun-17 12:58N 54°26' E 018°39'0 0.0
2018-Jun-17 12:31N 54°26' E 018°39'0 0.0
2018-Jun-17 12:01N 54°26' E 018°39'0 0.0
2018-Jun-17 11:31N 54°26' E 018°39'0 0.0
2018-Jun-17 11:00N 54°26' E 018°39'0 0.0
2018-Jun-17 10:30N 54°26' E 018°39'0 0.0
2018-Jun-17 10:00N 54°26' E 018°39'0 0.0
2018-Jun-17 09:30N 54°26' E 018°39'0 0.0
2018-Jun-17 09:00N 54°26' E 018°39'0 0.0
2018-Jun-17 08:30N 54°26' E 018°39'0 0.0
2018-Jun-17 08:00N 54°26' E 018°39'0 0.0
2018-Jun-17 07:30N 54°26' E 018°39'0 0.0
2018-Jun-17 07:00N 54°26' E 018°39'0 0.0
2018-Jun-17 06:30N 54°26' E 018°39'0 0.0
2018-Jun-17 06:00N 54°26' E 018°39'0 0.0
2018-Jun-17 05:30N 54°26' E 018°39'0 0.0
2018-Jun-17 05:00N 54°26' E 018°39'0 0.0
2018-Jun-17 04:30N 54°26' E 018°39'0 0.0
2018-Jun-17 04:00N 54°26' E 018°39'0 0.0
2018-Jun-17 03:30N 54°26' E 018°39'0 0.0
2018-Jun-17 03:00N 54°26' E 018°39'0 0.0
2018-Jun-17 02:30N 54°26' E 018°39'0 0.0
2018-Jun-17 02:00N 54°26' E 018°39'0 0.0
2018-Jun-17 01:30N 54°26' E 018°39'0 0.0
2018-Jun-17 00:57N 54°26' E 018°39'0 0.0
2018-Jun-17 00:30N 54°26' E 018°39'0 0.0
2018-Jun-17 00:00N 54°26' E 018°39'0 0.0
2018-Jun-16 23:30N 54°26' E 018°39'0 0.0
2018-Jun-16 23:00N 54°26' E 018°39'0 0.0
2018-Jun-16 22:30N 54°26' E 018°39'0 0.0
2018-Jun-16 22:00N 54°26' E 018°39'0 0.0
2018-Jun-16 21:30N 54°26' E 018°39'0 0.0
2018-Jun-16 21:00N 54°26' E 018°39'0 0.0
2018-Jun-16 20:30N 54°26' E 018°39'0 0.0
2018-Jun-16 20:00N 54°26' E 018°39'0 0.0
2018-Jun-16 19:30N 54°26' E 018°39'0 0.0
2018-Jun-16 18:57N 54°26' E 018°39'0 0.0
2018-Jun-16 18:30N 54°26' E 018°39'0 0.0
2018-Jun-16 18:00N 54°26' E 018°39'0 0.0
2018-Jun-16 17:30N 54°26' E 018°39'0 0.0
2018-Jun-16 17:00N 54°26' E 018°39'0 0.0
2018-Jun-16 16:30N 54°26' E 018°39'0 0.0
2018-Jun-16 16:00N 54°26' E 018°39'0 0.0
2018-Jun-16 15:30N 54°26' E 018°39'0 0.0
2018-Jun-16 15:00N 54°26' E 018°39'0 0.0
2018-Jun-16 14:30N 54°26' E 018°39'0 0.0
2018-Jun-16 14:00N 54°26' E 018°39'0 0.0
2018-Jun-16 13:30N 54°26' E 018°39'0 0.0
2018-Jun-16 13:00N 54°26' E 018°39'0 0.0
2018-Jun-16 12:30N 54°26' E 018°39'0 0.0
2018-Jun-16 12:00N 54°26' E 018°39'0 0.0
2018-Jun-16 11:30N 54°26' E 018°39'0 0.0
2018-Jun-16 11:00N 54°26' E 018°39'0 0.0
2018-Jun-16 10:30N 54°26' E 018°39'0 0.0
2018-Jun-16 10:00N 54°26' E 018°39'0 0.0
2018-Jun-16 09:30N 54°26' E 018°39'0 0.0
2018-Jun-16 09:00N 54°26' E 018°39'0 0.0
2018-Jun-16 08:30N 54°26' E 018°39'0 0.0
2018-Jun-16 08:00N 54°26' E 018°39'0 0.1
2018-Jun-16 07:30N 54°26' E 018°39'0 0.0
2018-Jun-16 07:00N 54°26' E 018°39'0 0.0
2018-Jun-16 06:30N 54°26' E 018°39'0 0.0
2018-Jun-16 06:00N 54°26' E 018°39'0 0.0
2018-Jun-16 05:30N 54°26' E 018°39'0 0.0
2018-Jun-16 05:00N 54°26' E 018°39'0 0.1
2018-Jun-16 04:30N 54°26' E 018°39'1 2.6
2018-Jun-16 04:00N 54°27' E 018°40'4 8.4
2018-Jun-16 03:30N 54°30' E 018°45'4 8.3
2018-Jun-16 03:00N 54°34' E 018°50'4 8.0
2018-Jun-16 02:30N 54°37' E 018°54'4 8.0
2018-Jun-16 02:00N 54°41' E 018°56'4 8.5
2018-Jun-16 01:30N 54°45' E 018°55'4 8.7
2018-Jun-16 01:00N 54°49' E 018°53'4 8.7
2018-Jun-16 00:30N 54°53' E 018°51'4 8.7
2018-Jun-16 00:00N 54°57' E 018°50'4 8.7
2018-Jun-15 23:30N 55°02' E 018°47'226 8.3
2018-Jun-14 20:21N 58°46' E 017°48'3 7.9
2018-Jun-14 20:00N 58°48' E 017°46'4 8.4
2018-Jun-14 19:30N 58°52' E 017°43'4 8.7
2018-Jun-14 19:00N 58°56' E 017°43'  
2018-Jun-11 15:02N 59°02' E 017°42'0 9.5
2018-Jun-11 15:00N 59°02' E 017°42'5 9.6
2018-Jun-11 14:28N 58°57' E 017°43'5 9.7
2018-Jun-11 13:59N 58°52' E 017°43'184 8.3
2018-Jun-10 15:49N 55°55' E 016°16'710.1
2018-Jun-10 15:06N 55°51' E 016°05'110.1
2018-Jun-10 15:00N 55°51' E 016°03'810.3
2018-Jun-10 14:11N 55°47' E 015°50'1010.2
2018-Jun-10 13:13N 55°42' E 015°35'210.4
2018-Jun-10 13:00N 55°41' E 015°32'610.1
2018-Jun-10 12:24N 55°38' E 015°22'4 9.9
2018-Jun-10 12:00N 55°36' E 015°16'610.2
2018-Jun-10 11:24N 55°33' E 015°06'410.3
2018-Jun-10 11:00N 55°31' E 014°60'510.2
2018-Jun-10 10:30N 55°29' E 014°52'510.1
2018-Jun-10 10:00N 55°26' E 014°44'510.1
2018-Jun-10 09:30N 55°23' E 014°37'510.0
2018-Jun-10 08:58N 55°19' E 014°31'510.2
2018-Jun-10 08:29N 55°15' E 014°26'510.3
2018-Jun-10 08:00N 55°12' E 014°20'510.0
2018-Jun-10 07:30N 55°10' E 014°12'5 9.8
2018-Jun-10 06:57N 55°11' E 014°02'6 9.3
2018-Jun-10 06:18N 55°11' E 013°51'3 9.1
2018-Jun-10 06:00N 55°11' E 013°47'5 9.1
2018-Jun-10 05:30N 55°12' E 013°39'4 9.0
2018-Jun-10 05:00N 55°12' E 013°31'5 9.1
2018-Jun-10 04:30N 55°13' E 013°23'5 9.1
2018-Jun-10 04:00N 55°13' E 013°15'5 9.1
2018-Jun-10 03:30N 55°14' E 013°07'5 9.2
2018-Jun-10 02:59N 55°14' E 012°59'4 9.1
2018-Jun-10 02:30N 55°15' E 012°51'5 9.0
2018-Jun-10 02:00N 55°17' E 012°44'4 8.4
2018-Jun-10 01:31N 55°19' E 012°38'5 9.4
2018-Jun-10 01:00N 55°24' E 012°39'5 9.5
2018-Jun-10 00:30N 55°28' E 012°41'5 9.4
2018-Jun-10 00:01N 55°33' E 012°42'5 9.1
2018-Jun-09 23:30N 55°37' E 012°42'4 8.9
2018-Jun-09 23:00N 55°42' E 012°41'4 9.1
2018-Jun-09 22:31N 55°46' E 012°41'5 9.4
2018-Jun-09 22:01N 55°51' E 012°39'5 9.0
2018-Jun-09 21:30N 55°55' E 012°38'4 9.0
2018-Jun-09 21:01N 55°60' E 012°38'4 7.7
2018-Jun-09 20:29N 56°04' E 012°37'60 9.0
2018-Jun-09 13:49N 56°34' E 011°03'3 8.8
2018-Jun-09 13:30N 56°36' E 010°59'7 8.3
2018-Jun-09 12:40N 56°41' E 010°51'1 8.6
2018-Jun-09 12:30N 56°42' E 010°49'5 9.1
2018-Jun-09 12:00N 56°45' E 010°43'5 9.3
2018-Jun-09 11:30N 56°49' E 010°38'7 9.4
2018-Jun-09 10:46N 56°54' E 010°29'3 9.4
2018-Jun-09 10:25N 56°56' E 010°25'510.1
2018-Jun-09 09:57N 56°59' E 010°19'5 9.9
2018-Jun-09 09:30N 57°00' E 010°10'5 9.1
2018-Jun-09 09:00N 57°03' E 010°04'0 0.2
2018-Jun-09 08:23N 57°03' E 010°04'0 0.0
2018-Jun-09 07:53N 57°03' E 010°04'0 0.0
2018-Jun-09 07:29N 57°03' E 010°04'0 0.0
2018-Jun-09 06:53N 57°03' E 010°04'  

Dump ship's entire track history